Aérodrome :
LOGIN :

S'inscrire | Disclaimer

   EN    FR    IT 

 










Légende :    VFR   VFR Marginal   IFR   IFR Intensif   IFR Très Intensif
Visi : 
Plafond : 
>= 8 km
>= 3000ft
5 à 8 km
1000 à 3000 ft
1500m à 5 km
500 à 1000 ft
800 à 1500m
200 à 500 ft
< 800m
< 200 ft
Symboles :   Orages  Brouillard  Fortes neiges  Fortes précipitations  Vent > 20 kt
SIGMETs :   Divers  Orages  Givrage  Turbulence  Onde Orograph.  Cendres Volcan.






- Altitude de l'aérodrome : 495 ft
- Code IATA : BUD


LHBP - Budapest Ferihegy

DERNIER METAR :
  • 190800Z 16006KT 140V200 9999 FEW024 BKN260 16/13 Q1017 NOSIG

METARs EXPIRÉS :
  • 190730Z 15007KT CAVOK 15/14 Q1017 NOSIG
  • 190700Z 13006KT CAVOK 13/13 Q1017 NOSIG
  • 190630Z 13006KT CAVOK 12/12 Q1017 NOSIG
  • 190600Z 11005KT CAVOK 10/10 Q1017 NOSIG
  • 190530Z 10005KT 9999 MIFG NSC 10/10 Q1016 NOSIG
  • 190500Z 10005KT 9999 MIFG NSC 08/08 Q1016 NOSIG

TAF TAF LHBP
Valide du 19 à 06h jusqu'au 20 à 06h UTC


190515Z 1906/2006 11004KT CAVOK
BECMG 1907/1909 19009KT
BECMG 1917/1919 13005KT



MET'MAP, la Météo Aéronautique d'un coup d'oeil ! - Copyright ORBIFLY Décembre 2007 - Disclaimer

ORBIFLY MET'MAP TEAM :

Programmation & Développement : Alexandra Zaïnal
Conception & Développement : Baudouin d'Aumeries
Co-Programmation & Développement : Marc-Olivier Méhu
Soutien technique & logistique : Manuel Goepfert

Contact : metmap@orbifly.com




SOURCES & CREDITS :

   NOAA